sensor_id;sensor_type;location;lat;lon;timestamp;pressure;altitude;pressure_sealevel;temperature;humidity
42859;BME280;28505;56.970;40.998;2023-01-29T00:05:14;100182.66;;;-3.95;100.00
42859;BME280;28505;56.970;40.998;2023-01-29T00:10:48;100159.94;;;-3.96;100.00
42859;BME280;28505;56.970;40.998;2023-01-29T00:16:10;100165.84;;;-3.94;100.00
42859;BME280;28505;56.970;40.998;2023-01-29T00:21:32;100157.56;;;-3.91;100.00
42859;BME280;28505;56.970;40.998;2023-01-29T00:26:55;100142.38;;;-3.89;100.00
42859;BME280;28505;56.970;40.998;2023-01-29T00:32:17;100147.47;;;-3.81;100.00
42859;BME280;28505;56.970;40.998;2023-01-29T00:37:41;100138.38;;;-3.78;100.00
42859;BME280;28505;56.970;40.998;2023-01-29T00:43:06;100135.34;;;-3.75;100.00
42859;BME280;28505;56.970;40.998;2023-01-29T00:48:47;100135.16;;;-3.73;100.00
42859;BME280;28505;56.970;40.998;2023-01-29T00:54:08;100085.34;;;-4.03;100.00
42859;BME280;28505;56.970;40.998;2023-01-29T00:59:31;100101.25;;;-3.83;100.00
42859;BME280;28505;56.970;40.998;2023-01-29T01:04:55;100097.22;;;-3.86;100.00
42859;BME280;28505;56.970;40.998;2023-01-29T01:10:30;100062.28;;;-4.01;100.00
42859;BME280;28505;56.970;40.998;2023-01-29T01:15:52;100063.09;;;-4.01;100.00
42859;BME280;28505;56.970;40.998;2023-01-29T01:21:14;100053.19;;;-3.98;100.00
42859;BME280;28505;56.970;40.998;2023-01-29T01:26:37;100106.78;;;-3.71;100.00
42859;BME280;28505;56.970;40.998;2023-01-29T01:31:59;100086.09;;;-3.81;100.00
42859;BME280;28505;56.970;40.998;2023-01-29T01:37:22;100054.81;;;-3.97;100.00
42859;BME280;28505;56.970;40.998;2023-01-29T01:42:58;100097.47;;;-3.67;100.00
42859;BME280;28505;56.970;40.998;2023-01-29T01:48:32;100026.88;;;-3.98;100.00
42859;BME280;28505;56.970;40.998;2023-01-29T01:53:58;100064.41;;;-3.77;100.00
42859;BME280;28505;56.970;40.998;2023-01-29T01:59:23;100066.66;;;-3.73;100.00
42859;BME280;28505;56.970;40.998;2023-01-29T02:04:47;100061.19;;;-3.72;100.00
42859;BME280;28505;56.970;40.998;2023-01-29T02:10:33;100056.75;;;-3.71;100.00
42859;BME280;28505;56.970;40.998;2023-01-29T02:15:58;100039.47;;;-3.81;100.00
42859;BME280;28505;56.970;40.998;2023-01-29T02:21:36;100042.94;;;-3.73;100.00
42859;BME280;28505;56.970;40.998;2023-01-29T02:39:21;100026.69;;;-3.84;100.00
42859;BME280;28505;56.970;40.998;2023-01-29T02:50:42;100014.56;;;-3.85;100.00
42859;BME280;28505;56.970;40.998;2023-01-29T02:56:20;99956.28;;;-4.16;100.00
42859;BME280;28505;56.970;40.998;2023-01-29T03:01:55;99969.31;;;-4.08;100.00
42859;BME280;28505;56.970;40.998;2023-01-29T03:07:29;99954.06;;;-4.13;100.00
42859;BME280;28505;56.970;40.998;2023-01-29T03:19:03;99929.56;;;-4.13;100.00
42859;BME280;28505;56.970;40.998;2023-01-29T03:24:49;99971.75;;;-3.93;100.00
42859;BME280;28505;56.970;40.998;2023-01-29T03:30:39;99967.91;;;-3.97;100.00
42859;BME280;28505;56.970;40.998;2023-01-29T03:36:45;99974.41;;;-3.93;100.00
42859;BME280;28505;56.970;40.998;2023-01-29T03:42:43;99976.44;;;-3.95;100.00
42859;BME280;28505;56.970;40.998;2023-01-29T03:48:53;99912.31;;;-4.22;100.00
42859;BME280;28505;56.970;40.998;2023-01-29T03:54:17;99950.50;;;-3.92;100.00
42859;BME280;28505;56.970;40.998;2023-01-29T04:00:11;99936.09;;;-3.96;100.00
42859;BME280;28505;56.970;40.998;2023-01-29T04:05:56;99926.19;;;-3.94;100.00
42859;BME280;28505;56.970;40.998;2023-01-29T04:11:28;99894.97;;;-4.10;100.00
42859;BME280;28505;56.970;40.998;2023-01-29T04:16:54;99911.56;;;-4.03;100.00
42859;BME280;28505;56.970;40.998;2023-01-29T04:22:35;99904.47;;;-4.03;100.00
42859;BME280;28505;56.970;40.998;2023-01-29T04:28:38;99912.00;;;-4.00;100.00
42859;BME280;28505;56.970;40.998;2023-01-29T04:34:24;99905.72;;;-3.98;100.00
42859;BME280;28505;56.970;40.998;2023-01-29T04:40:31;99897.63;;;-3.97;100.00
42859;BME280;28505;56.970;40.998;2023-01-29T04:46:19;99899.44;;;-4.04;100.00
42859;BME280;28505;56.970;40.998;2023-01-29T04:57:51;99860.94;;;-4.18;100.00
42859;BME280;28505;56.970;40.998;2023-01-29T05:03:15;99872.69;;;-4.14;100.00
42859;BME280;28505;56.970;40.998;2023-01-29T05:08:38;99850.16;;;-4.30;100.00
42859;BME280;28505;56.970;40.998;2023-01-29T05:14:03;99840.84;;;-4.33;100.00
42859;BME280;28505;56.970;40.998;2023-01-29T05:19:28;99832.75;;;-4.38;100.00
42859;BME280;28505;56.970;40.998;2023-01-29T05:24:50;99843.06;;;-4.30;100.00
42859;BME280;28505;56.970;40.998;2023-01-29T05:30:12;99851.00;;;-4.16;100.00
42859;BME280;28505;56.970;40.998;2023-01-29T05:35:35;99846.53;;;-4.22;100.00
42859;BME280;28505;56.970;40.998;2023-01-29T05:40:58;99825.66;;;-4.31;100.00
42859;BME280;28505;56.970;40.998;2023-01-29T05:46:20;99825.03;;;-4.33;100.00
42859;BME280;28505;56.970;40.998;2023-01-29T05:51:43;99830.34;;;-4.19;100.00
42859;BME280;28505;56.970;40.998;2023-01-29T05:57:45;99847.38;;;-4.09;100.00
42859;BME280;28505;56.970;40.998;2023-01-29T06:03:10;99827.69;;;-4.19;100.00
42859;BME280;28505;56.970;40.998;2023-01-29T06:08:32;99819.41;;;-4.16;100.00
42859;BME280;28505;56.970;40.998;2023-01-29T06:13:54;99811.13;;;-4.13;100.00
42859;BME280;28505;56.970;40.998;2023-01-29T06:19:16;99814.56;;;-4.06;100.00
42859;BME280;28505;56.970;40.998;2023-01-29T06:24:41;99820.22;;;-3.96;100.00
42859;BME280;28505;56.970;40.998;2023-01-29T06:30:04;99821.47;;;-3.92;100.00
42859;BME280;28505;56.970;40.998;2023-01-29T06:35:27;99813.97;;;-3.88;100.00
42859;BME280;28505;56.970;40.998;2023-01-29T06:40:49;99791.25;;;-3.89;100.00
42859;BME280;28505;56.970;40.998;2023-01-29T06:46:12;99800.81;;;-3.82;100.00
42859;BME280;28505;56.970;40.998;2023-01-29T06:51:34;99789.06;;;-3.86;100.00
42859;BME280;28505;56.970;40.998;2023-01-29T06:56:57;99805.66;;;-3.65;100.00
42859;BME280;28505;56.970;40.998;2023-01-29T07:02:19;99782.56;;;-3.77;100.00
42859;BME280;28505;56.970;40.998;2023-01-29T07:07:41;99785.78;;;-3.61;100.00
42859;BME280;28505;56.970;40.998;2023-01-29T07:13:03;99773.63;;;-3.62;100.00
42859;BME280;28505;56.970;40.998;2023-01-29T07:18:29;99777.25;;;-3.50;100.00
42859;BME280;28505;56.970;40.998;2023-01-29T07:23:51;99755.78;;;-3.60;100.00
42859;BME280;28505;56.970;40.998;2023-01-29T07:29:13;99772.78;;;-3.43;100.00
42859;BME280;28505;56.970;40.998;2023-01-29T07:34:35;99760.22;;;-3.54;100.00
42859;BME280;28505;56.970;40.998;2023-01-29T07:39:58;99751.34;;;-3.53;100.00
42859;BME280;28505;56.970;40.998;2023-01-29T07:45:20;99754.56;;;-3.51;100.00
42859;BME280;28505;56.970;40.998;2023-01-29T07:50:42;99769.13;;;-3.35;100.00
42859;BME280;28505;56.970;40.998;2023-01-29T07:56:05;99734.25;;;-3.44;100.00
42859;BME280;28505;56.970;40.998;2023-01-29T08:01:26;99746.81;;;-3.33;100.00
42859;BME280;28505;56.970;40.998;2023-01-29T08:06:49;99740.72;;;-3.26;100.00
42859;BME280;28505;56.970;40.998;2023-01-29T08:12:11;99751.59;;;-3.10;100.00
42859;BME280;28505;56.970;40.998;2023-01-29T08:17:32;99710.03;;;-3.14;100.00
42859;BME280;28505;56.970;40.998;2023-01-29T08:23:06;99704.16;;;-3.16;100.00
42859;BME280;28505;56.970;40.998;2023-01-29T08:28:28;99737.56;;;-2.97;100.00
42859;BME280;28505;56.970;40.998;2023-01-29T08:33:52;99733.47;;;-2.93;100.00
42859;BME280;28505;56.970;40.998;2023-01-29T08:39:15;99727.66;;;-3.08;100.00
42859;BME280;28505;56.970;40.998;2023-01-29T08:44:43;99689.41;;;-3.31;100.00
42859;BME280;28505;56.970;40.998;2023-01-29T08:50:06;99701.34;;;-3.21;100.00
42859;BME280;28505;56.970;40.998;2023-01-29T08:55:21;99721.94;;;-3.05;100.00
42859;BME280;28505;56.970;40.998;2023-01-29T09:00:43;99722.53;;;-2.96;100.00
42859;BME280;28505;56.970;40.998;2023-01-29T09:06:07;99726.00;;;-3.02;100.00
42859;BME280;28505;56.970;40.998;2023-01-29T09:11:29;99711.25;;;-3.10;100.00
42859;BME280;28505;56.970;40.998;2023-01-29T09:16:51;99703.38;;;-3.17;100.00
42859;BME280;28505;56.970;40.998;2023-01-29T09:22:15;99698.47;;;-3.13;100.00
42859;BME280;28505;56.970;40.998;2023-01-29T09:27:37;99697.03;;;-3.09;100.00
42859;BME280;28505;56.970;40.998;2023-01-29T09:33:03;99679.41;;;-3.15;100.00
42859;BME280;28505;56.970;40.998;2023-01-29T09:38:28;99683.00;;;-3.03;100.00
42859;BME280;28505;56.970;40.998;2023-01-29T09:43:59;99684.03;;;-3.04;100.00
42859;BME280;28505;56.970;40.998;2023-01-29T09:49:46;99649.38;;;-3.14;100.00
42859;BME280;28505;56.970;40.998;2023-01-29T09:55:27;99648.34;;;-3.07;100.00
42859;BME280;28505;56.970;40.998;2023-01-29T10:06:58;99626.28;;;-3.19;100.00
42859;BME280;28505;56.970;40.998;2023-01-29T10:12:38;99645.66;;;-3.00;100.00
42859;BME280;28505;56.970;40.998;2023-01-29T10:18:32;99631.06;;;-3.02;100.00
42859;BME280;28505;56.970;40.998;2023-01-29T10:24:24;99619.88;;;-2.98;100.00
42859;BME280;28505;56.970;40.998;2023-01-29T10:29:53;99566.94;;;-3.28;100.00
42859;BME280;28505;56.970;40.998;2023-01-29T10:35:42;99599.03;;;-3.06;100.00
42859;BME280;28505;56.970;40.998;2023-01-29T10:58:31;99556.91;;;-3.13;100.00
42859;BME280;28505;56.970;40.998;2023-01-29T11:04:00;99545.13;;;-3.10;100.00
42859;BME280;28505;56.970;40.998;2023-01-29T11:10:00;99557.19;;;-2.96;100.00
42859;BME280;28505;56.970;40.998;2023-01-29T11:15:31;99539.81;;;-3.03;100.00
42859;BME280;28505;56.970;40.998;2023-01-29T11:21:05;99553.00;;;-3.03;100.00
42859;BME280;28505;56.970;40.998;2023-01-29T11:26:28;99545.06;;;-3.03;100.00
42859;BME280;28505;56.970;40.998;2023-01-29T11:31:52;99507.59;;;-3.12;100.00
42859;BME280;28505;56.970;40.998;2023-01-29T11:37:15;99530.06;;;-3.03;100.00
42859;BME280;28505;56.970;40.998;2023-01-29T11:42:39;99540.59;;;-3.03;100.00
42859;BME280;28505;56.970;40.998;2023-01-29T11:48:01;99544.28;;;-3.04;100.00
42859;BME280;28505;56.970;40.998;2023-01-29T11:58:56;99506.09;;;-3.26;100.00
42859;BME280;28505;56.970;40.998;2023-01-29T12:04:27;99544.84;;;-3.02;100.00
42859;BME280;28505;56.970;40.998;2023-01-29T12:09:52;99537.38;;;-3.05;100.00
42859;BME280;28505;56.970;40.998;2023-01-29T12:15:34;99532.69;;;-3.03;100.00
42859;BME280;28505;56.970;40.998;2023-01-29T12:21:00;99519.34;;;-3.08;100.00
42859;BME280;28505;56.970;40.998;2023-01-29T12:26:28;99511.09;;;-3.18;100.00
42859;BME280;28505;56.970;40.998;2023-01-29T12:43:21;99486.94;;;-3.15;100.00
42859;BME280;28505;56.970;40.998;2023-01-29T12:48:46;99487.75;;;-3.15;100.00
42859;BME280;28505;56.970;40.998;2023-01-29T12:54:14;99495.47;;;-3.13;100.00
42859;BME280;28505;56.970;40.998;2023-01-29T12:59:42;99472.22;;;-3.23;100.00
42859;BME280;28505;56.970;40.998;2023-01-29T13:11:58;99483.94;;;-3.19;100.00
42859;BME280;28505;56.970;40.998;2023-01-29T13:22:57;99484.91;;;-3.13;100.00
42859;BME280;28505;56.970;40.998;2023-01-29T13:28:24;99488.53;;;-3.14;100.00
42859;BME280;28505;56.970;40.998;2023-01-29T13:34:03;99477.06;;;-3.20;100.00
42859;BME280;28505;56.970;40.998;2023-01-29T13:39:38;99478.44;;;-3.17;100.00
42859;BME280;28505;56.970;40.998;2023-01-29T13:45:08;99485.53;;;-3.18;100.00
42859;BME280;28505;56.970;40.998;2023-01-29T13:50:45;99478.22;;;-3.16;100.00
42859;BME280;28505;56.970;40.998;2023-01-29T14:18:33;99464.06;;;-3.21;100.00
42859;BME280;28505;56.970;40.998;2023-01-29T14:24:16;99481.91;;;-3.17;100.00
42859;BME280;28505;56.970;40.998;2023-01-29T14:29:40;99473.16;;;-3.17;100.00
42859;BME280;28505;56.970;40.998;2023-01-29T14:35:09;99481.91;;;-3.17;100.00
42859;BME280;28505;56.970;40.998;2023-01-29T14:40:38;99458.84;;;-3.28;100.00
42859;BME280;28505;56.970;40.998;2023-01-29T14:51:56;99459.94;;;-3.36;100.00
42859;BME280;28505;56.970;40.998;2023-01-29T14:57:21;99447.44;;;-3.47;100.00
42859;BME280;28505;56.970;40.998;2023-01-29T15:02:44;99475.91;;;-3.31;100.00
42859;BME280;28505;56.970;40.998;2023-01-29T15:08:28;99457.88;;;-3.34;100.00
42859;BME280;28505;56.970;40.998;2023-01-29T15:19:43;99449.44;;;-3.42;100.00
42859;BME280;28505;56.970;40.998;2023-01-29T15:25:14;99435.50;;;-3.49;100.00
42859;BME280;28505;56.970;40.998;2023-01-29T15:30:41;99441.16;;;-3.46;100.00
42859;BME280;28505;56.970;40.998;2023-01-29T15:36:05;99424.31;;;-3.45;100.00
42859;BME280;28505;56.970;40.998;2023-01-29T15:41:29;99419.09;;;-3.51;100.00
42859;BME280;28505;56.970;40.998;2023-01-29T15:46:57;99422.97;;;-3.54;100.00
42859;BME280;28505;56.970;40.998;2023-01-29T15:52:27;99423.78;;;-3.54;100.00
42859;BME280;28505;56.970;40.998;2023-01-29T15:57:54;99439.09;;;-3.44;100.00
42859;BME280;28505;56.970;40.998;2023-01-29T16:03:18;99418.88;;;-3.50;100.00
42859;BME280;28505;56.970;40.998;2023-01-29T16:08:45;99430.63;;;-3.46;100.00
42859;BME280;28505;56.970;40.998;2023-01-29T16:14:14;99432.84;;;-3.43;100.00
42859;BME280;28505;56.970;40.998;2023-01-29T16:19:39;99407.16;;;-3.54;100.00
42859;BME280;28505;56.970;40.998;2023-01-29T16:25:13;99425.69;;;-3.36;100.00
42859;BME280;28505;56.970;40.998;2023-01-29T16:30:43;99412.75;;;-3.44;100.00
42859;BME280;28505;56.970;40.998;2023-01-29T16:36:19;99423.91;;;-3.42;100.00
42859;BME280;28505;56.970;40.998;2023-01-29T16:41:42;99418.03;;;-3.44;100.00
42859;BME280;28505;56.970;40.998;2023-01-29T16:47:25;99414.81;;;-3.46;100.00
42859;BME280;28505;56.970;40.998;2023-01-29T16:52:56;99388.81;;;-3.67;100.00
42859;BME280;28505;56.970;40.998;2023-01-29T16:58:24;99397.47;;;-3.60;100.00
42859;BME280;28505;56.970;40.998;2023-01-29T17:04:03;99393.88;;;-3.66;100.00
42859;BME280;28505;56.970;40.998;2023-01-29T17:09:33;99393.72;;;-3.71;100.00
42859;BME280;28505;56.970;40.998;2023-01-29T17:15:01;99374.09;;;-3.75;100.00
42859;BME280;28505;56.970;40.998;2023-01-29T17:20:24;99355.91;;;-3.83;100.00
42859;BME280;28505;56.970;40.998;2023-01-29T17:25:48;99348.78;;;-3.76;100.00
42859;BME280;28505;56.970;40.998;2023-01-29T17:31:10;99367.50;;;-3.59;100.00
42859;BME280;28505;56.970;40.998;2023-01-29T17:36:33;99348.78;;;-3.76;100.00
42859;BME280;28505;56.970;40.998;2023-01-29T17:41:56;99364.69;;;-3.64;100.00
42859;BME280;28505;56.970;40.998;2023-01-29T17:47:19;99341.31;;;-3.79;100.00
42859;BME280;28505;56.970;40.998;2023-01-29T17:52:44;99354.44;;;-3.72;100.00
42859;BME280;28505;56.970;40.998;2023-01-29T17:58:15;99344.53;;;-3.77;100.00
42859;BME280;28505;56.970;40.998;2023-01-29T18:03:40;99341.50;;;-3.81;100.00
42859;BME280;28505;56.970;40.998;2023-01-29T18:09:03;99332.84;;;-3.88;100.00
42859;BME280;28505;56.970;40.998;2023-01-29T18:14:26;99354.47;;;-3.79;100.00
42859;BME280;28505;56.970;40.998;2023-01-29T18:19:48;99354.06;;;-3.76;100.00
42859;BME280;28505;56.970;40.998;2023-01-29T18:25:17;99347.53;;;-3.73;100.00
42859;BME280;28505;56.970;40.998;2023-01-29T18:30:40;99336.53;;;-3.89;100.00
42859;BME280;28505;56.970;40.998;2023-01-29T18:36:04;99361.50;;;-3.73;100.00
42859;BME280;28505;56.970;40.998;2023-01-29T18:41:30;99371.22;;;-3.73;100.00
42859;BME280;28505;56.970;40.998;2023-01-29T18:46:53;99381.16;;;-3.69;100.00
42859;BME280;28505;56.970;40.998;2023-01-29T18:52:16;99339.72;;;-3.87;100.00
42859;BME280;28505;56.970;40.998;2023-01-29T18:57:43;99338.31;;;-3.89;100.00
42859;BME280;28505;56.970;40.998;2023-01-29T19:03:25;99354.72;;;-3.87;100.00
42859;BME280;28505;56.970;40.998;2023-01-29T19:08:48;99347.81;;;-3.82;100.00
42859;BME280;28505;56.970;40.998;2023-01-29T19:14:11;99349.41;;;-3.81;100.00
42859;BME280;28505;56.970;40.998;2023-01-29T19:19:33;99327.97;;;-3.84;100.00
42859;BME280;28505;56.970;40.998;2023-01-29T19:24:58;99346.47;;;-3.66;100.00
42859;BME280;28505;56.970;40.998;2023-01-29T19:30:20;99314.44;;;-3.88;100.00
42859;BME280;28505;56.970;40.998;2023-01-29T19:35:43;99326.88;;;-3.77;100.00
42859;BME280;28505;56.970;40.998;2023-01-29T19:41:06;99322.28;;;-3.81;100.00
42859;BME280;28505;56.970;40.998;2023-01-29T19:46:28;99312.97;;;-3.84;100.00
42859;BME280;28505;56.970;40.998;2023-01-29T19:51:52;99327.53;;;-3.81;100.00
42859;BME280;28505;56.970;40.998;2023-01-29T19:57:19;99327.91;;;-3.78;100.00
42859;BME280;28505;56.970;40.998;2023-01-29T20:02:46;99333.72;;;-3.69;100.00
42859;BME280;28505;56.970;40.998;2023-01-29T20:08:10;99317.75;;;-3.74;100.00
42859;BME280;28505;56.970;40.998;2023-01-29T20:13:34;99310.72;;;-3.80;100.00
42859;BME280;28505;56.970;40.998;2023-01-29T20:18:56;99291.16;;;-3.91;100.00
42859;BME280;28505;56.970;40.998;2023-01-29T20:24:35;99313.34;;;-3.80;100.00
42859;BME280;28505;56.970;40.998;2023-01-29T20:30:00;99308.88;;;-3.80;100.00
42859;BME280;28505;56.970;40.998;2023-01-29T20:35:23;99300.41;;;-3.82;100.00
42859;BME280;28505;56.970;40.998;2023-01-29T20:40:45;99285.47;;;-3.88;100.00
42859;BME280;28505;56.970;40.998;2023-01-29T20:46:07;99295.28;;;-3.77;100.00
42859;BME280;28505;56.970;40.998;2023-01-29T20:51:30;99303.13;;;-3.70;100.00
42859;BME280;28505;56.970;40.998;2023-01-29T20:56:54;99297.91;;;-3.77;100.00
42859;BME280;28505;56.970;40.998;2023-01-29T21:02:20;99280.94;;;-3.81;100.00
42859;BME280;28505;56.970;40.998;2023-01-29T21:07:43;99301.47;;;-3.64;100.00
42859;BME280;28505;56.970;40.998;2023-01-29T21:13:05;99279.47;;;-3.77;100.00
42859;BME280;28505;56.970;40.998;2023-01-29T21:18:28;99286.16;;;-3.74;100.00
42859;BME280;28505;56.970;40.998;2023-01-29T21:23:53;99274.63;;;-3.80;100.00
42859;BME280;28505;56.970;40.998;2023-01-29T21:29:15;99261.34;;;-3.85;100.00
42859;BME280;28505;56.970;40.998;2023-01-29T21:34:37;99259.88;;;-3.81;100.00
42859;BME280;28505;56.970;40.998;2023-01-29T21:40:00;99261.91;;;-3.83;100.00
42859;BME280;28505;56.970;40.998;2023-01-29T21:45:22;99265.50;;;-3.77;100.00
42859;BME280;28505;56.970;40.998;2023-01-29T21:50:45;99280.97;;;-3.62;100.00
42859;BME280;28505;56.970;40.998;2023-01-29T21:56:09;99254.97;;;-3.77;100.00
42859;BME280;28505;56.970;40.998;2023-01-29T22:01:31;99238.38;;;-3.78;100.00
42859;BME280;28505;56.970;40.998;2023-01-29T22:06:58;99243.03;;;-3.80;100.00
42859;BME280;28505;56.970;40.998;2023-01-29T22:12:20;99225.88;;;-3.82;100.00
42859;BME280;28505;56.970;40.998;2023-01-29T22:17:44;99210.50;;;-3.85;100.00
42859;BME280;28505;56.970;40.998;2023-01-29T22:23:07;99212.69;;;-3.82;100.00
42859;BME280;28505;56.970;40.998;2023-01-29T22:28:30;99216.88;;;-3.74;100.00
42859;BME280;28505;56.970;40.998;2023-01-29T22:33:53;99205.28;;;-3.92;100.00
42859;BME280;28505;56.970;40.998;2023-01-29T22:39:15;99211.31;;;-3.85;100.00
42859;BME280;28505;56.970;40.998;2023-01-29T22:44:36;99206.03;;;-3.85;100.00
42859;BME280;28505;56.970;40.998;2023-01-29T22:50:02;99212.19;;;-3.72;100.00
42859;BME280;28505;56.970;40.998;2023-01-29T22:55:27;99164.16;;;-4.11;100.00
42859;BME280;28505;56.970;40.998;2023-01-29T23:00:49;99216.50;;;-3.78;100.00
42859;BME280;28505;56.970;40.998;2023-01-29T23:06:13;99212.03;;;-3.78;100.00
42859;BME280;28505;56.970;40.998;2023-01-29T23:11:35;99214.00;;;-3.73;100.00
42859;BME280;28505;56.970;40.998;2023-01-29T23:16:57;99211.44;;;-3.80;100.00
42859;BME280;28505;56.970;40.998;2023-01-29T23:22:19;99204.13;;;-3.78;100.00
42859;BME280;28505;56.970;40.998;2023-01-29T23:27:41;99194.94;;;-3.68;100.00
42859;BME280;28505;56.970;40.998;2023-01-29T23:33:03;99187.91;;;-3.74;100.00
42859;BME280;28505;56.970;40.998;2023-01-29T23:38:25;99190.91;;;-3.71;100.00
42859;BME280;28505;56.970;40.998;2023-01-29T23:43:47;99190.22;;;-3.66;100.00
42859;BME280;28505;56.970;40.998;2023-01-29T23:49:11;99181.88;;;-3.63;100.00
42859;BME280;28505;56.970;40.998;2023-01-29T23:54:33;99162.16;;;-3.72;100.00
42859;BME280;28505;56.970;40.998;2023-01-29T23:59:55;99164.47;;;-3.64;100.00
